sensor_id;sensor_type;location;lat;lon;timestamp;pressure;altitude;pressure_sealevel;temperature;humidity
8641;BME280;4358;42.100;25.222;2023-12-07T00:01:59;99780.00;;;5.28;100.00
8641;BME280;4358;42.100;25.222;2023-12-07T00:04:26;99781.84;;;5.26;100.00
8641;BME280;4358;42.100;25.222;2023-12-07T00:06:53;99778.41;;;5.24;100.00
8641;BME280;4358;42.100;25.222;2023-12-07T00:09:21;99788.13;;;5.23;100.00
8641;BME280;4358;42.100;25.222;2023-12-07T00:11:48;99782.41;;;5.13;100.00
8641;BME280;4358;42.100;25.222;2023-12-07T00:14:15;99793.72;;;5.16;100.00
8641;BME280;4358;42.100;25.222;2023-12-07T00:16:42;99804.41;;;5.13;100.00
8641;BME280;4358;42.100;25.222;2023-12-07T00:19:09;99800.19;;;5.08;100.00
8641;BME280;4358;42.100;25.222;2023-12-07T00:21:36;99790.81;;;5.22;100.00
8641;BME280;4358;42.100;25.222;2023-12-07T00:24:04;99792.38;;;5.26;100.00
8641;BME280;4358;42.100;25.222;2023-12-07T00:26:32;99797.19;;;5.35;100.00
8641;BME280;4358;42.100;25.222;2023-12-07T00:28:59;99795.63;;;5.31;100.00
8641;BME280;4358;42.100;25.222;2023-12-07T00:31:26;99798.56;;;5.25;100.00
8641;BME280;4358;42.100;25.222;2023-12-07T00:33:53;99797.34;;;5.32;100.00
8641;BME280;4358;42.100;25.222;2023-12-07T00:36:20;99793.34;;;5.42;100.00
8641;BME280;4358;42.100;25.222;2023-12-07T00:38:47;99787.81;;;5.48;100.00
8641;BME280;4358;42.100;25.222;2023-12-07T00:41:14;99799.72;;;5.55;100.00
8641;BME280;4358;42.100;25.222;2023-12-07T00:43:42;99801.31;;;5.59;100.00
8641;BME280;4358;42.100;25.222;2023-12-07T00:46:09;99790.16;;;5.71;100.00
8641;BME280;4358;42.100;25.222;2023-12-07T00:48:37;99797.13;;;5.72;100.00
8641;BME280;4358;42.100;25.222;2023-12-07T00:51:04;99791.25;;;5.67;100.00
8641;BME280;4358;42.100;25.222;2023-12-07T00:53:32;99801.13;;;5.62;100.00
8641;BME280;4358;42.100;25.222;2023-12-07T00:55:59;99802.50;;;5.52;100.00
8641;BME280;4358;42.100;25.222;2023-12-07T00:58:25;99800.69;;;5.35;100.00
8641;BME280;4358;42.100;25.222;2023-12-07T01:00:54;99792.94;;;5.32;100.00
8641;BME280;4358;42.100;25.222;2023-12-07T01:03:21;99794.22;;;5.42;100.00
8641;BME280;4358;42.100;25.222;2023-12-07T01:05:48;99787.81;;;5.48;100.00
8641;BME280;4358;42.100;25.222;2023-12-07T01:08:14;99790.22;;;5.52;100.00
8641;BME280;4358;42.100;25.222;2023-12-07T01:10:41;99790.84;;;5.58;100.00
8641;BME280;4358;42.100;25.222;2023-12-07T01:13:08;99788.78;;;5.64;100.00
8641;BME280;4358;42.100;25.222;2023-12-07T01:15:35;99784.88;;;5.71;100.00
8641;BME280;4358;42.100;25.222;2023-12-07T01:18:04;99778.06;;;5.67;100.00
8641;BME280;4358;42.100;25.222;2023-12-07T01:20:31;99782.47;;;5.67;100.00
8641;BME280;4358;42.100;25.222;2023-12-07T01:22:58;99776.38;;;5.66;100.00
8641;BME280;4358;42.100;25.222;2023-12-07T01:25:25;99773.91;;;5.63;100.00
8641;BME280;4358;42.100;25.222;2023-12-07T01:27:52;99774.19;;;5.57;100.00
8641;BME280;4358;42.100;25.222;2023-12-07T01:30:19;99770.13;;;5.50;100.00
8641;BME280;4358;42.100;25.222;2023-12-07T01:32:45;99767.81;;;5.44;100.00
8641;BME280;4358;42.100;25.222;2023-12-07T01:35:14;99768.59;;;5.46;100.00
8641;BME280;4358;42.100;25.222;2023-12-07T01:37:41;99769.59;;;5.43;100.00
8641;BME280;4358;42.100;25.222;2023-12-07T01:40:08;99770.59;;;5.41;100.00
8641;BME280;4358;42.100;25.222;2023-12-07T01:42:36;99771.16;;;5.29;100.00
8641;BME280;4358;42.100;25.222;2023-12-07T01:45:05;99761.53;;;5.10;100.00
8641;BME280;4358;42.100;25.222;2023-12-07T01:47:33;99764.66;;;5.00;100.00
8641;BME280;4358;42.100;25.222;2023-12-07T01:50:02;99765.34;;;5.03;100.00
8641;BME280;4358;42.100;25.222;2023-12-07T01:52:32;99768.72;;;5.07;100.00
8641;BME280;4358;42.100;25.222;2023-12-07T01:55:02;99777.59;;;5.04;100.00
8641;BME280;4358;42.100;25.222;2023-12-07T01:57:29;99771.31;;;4.88;100.00
8641;BME280;4358;42.100;25.222;2023-12-07T01:59:57;99775.28;;;4.78;100.00
8641;BME280;4358;42.100;25.222;2023-12-07T02:02:24;99770.53;;;4.67;100.00
8641;BME280;4358;42.100;25.222;2023-12-07T02:04:51;99772.72;;;4.77;100.00
8641;BME280;4358;42.100;25.222;2023-12-07T02:07:19;99776.00;;;4.82;100.00
8641;BME280;4358;42.100;25.222;2023-12-07T02:09:47;99785.69;;;4.81;100.00
8641;BME280;4358;42.100;25.222;2023-12-07T02:12:14;99780.69;;;4.75;100.00
8641;BME280;4358;42.100;25.222;2023-12-07T02:14:41;99783.97;;;4.80;100.00
8641;BME280;4358;42.100;25.222;2023-12-07T02:17:15;99779.63;;;4.79;100.00
8641;BME280;4358;42.100;25.222;2023-12-07T02:19:52;99780.81;;;4.72;100.00
8641;BME280;4358;42.100;25.222;2023-12-07T02:22:25;99780.44;;;4.61;100.00
8641;BME280;4358;42.100;25.222;2023-12-07T02:25:09;99786.28;;;4.67;100.00
8641;BME280;4358;42.100;25.222;2023-12-07T02:27:39;99783.22;;;4.58;100.00
8641;BME280;4358;42.100;25.222;2023-12-07T02:30:08;99775.13;;;4.62;100.00
8641;BME280;4358;42.100;25.222;2023-12-07T02:32:36;99777.78;;;4.42;100.00
8641;BME280;4358;42.100;25.222;2023-12-07T02:35:04;99775.63;;;4.32;100.00
8641;BME280;4358;42.100;25.222;2023-12-07T02:37:35;99769.97;;;4.41;100.00
8641;BME280;4358;42.100;25.222;2023-12-07T02:40:05;99775.75;;;4.49;100.00
8641;BME280;4358;42.100;25.222;2023-12-07T02:42:35;99771.41;;;4.48;100.00
8641;BME280;4358;42.100;25.222;2023-12-07T02:45:06;99772.31;;;4.47;100.00
8641;BME280;4358;42.100;25.222;2023-12-07T02:47:34;99773.25;;;4.46;100.00
8641;BME280;4358;42.100;25.222;2023-12-07T02:50:01;99778.09;;;4.35;100.00
8641;BME280;4358;42.100;25.222;2023-12-07T02:52:28;99777.66;;;4.45;100.00
8641;BME280;4358;42.100;25.222;2023-12-07T02:54:55;99784.00;;;4.40;100.00
8641;BME280;4358;42.100;25.222;2023-12-07T02:57:22;99766.69;;;4.36;100.00
8641;BME280;4358;42.100;25.222;2023-12-07T02:59:49;99784.56;;;4.48;100.00
8641;BME280;4358;42.100;25.222;2023-12-07T03:02:17;99785.63;;;4.44;100.00
8641;BME280;4358;42.100;25.222;2023-12-07T03:04:44;99786.59;;;4.41;100.00
8641;BME280;4358;42.100;25.222;2023-12-07T03:07:11;99787.34;;;4.45;100.00
8641;BME280;4358;42.100;25.222;2023-12-07T03:09:38;99787.97;;;4.50;100.00
8641;BME280;4358;42.100;25.222;2023-12-07T03:12:06;99782.50;;;4.54;100.00
8641;BME280;4358;42.100;25.222;2023-12-07T03:14:33;99779.03;;;4.54;100.00
8641;BME280;4358;42.100;25.222;2023-12-07T03:17:00;99779.94;;;4.53;100.00
8641;BME280;4358;42.100;25.222;2023-12-07T03:19:29;99782.38;;;4.57;100.00
8641;BME280;4358;42.100;25.222;2023-12-07T03:21:56;99780.44;;;4.61;100.00
8641;BME280;4358;42.100;25.222;2023-12-07T03:24:23;99784.53;;;4.68;100.00
8641;BME280;4358;42.100;25.222;2023-12-07T03:26:50;99785.69;;;4.81;100.00
8641;BME280;4358;42.100;25.222;2023-12-07T03:29:17;99778.44;;;4.86;100.00
8641;BME280;4358;42.100;25.222;2023-12-07T03:31:43;99774.16;;;4.84;100.00
8641;BME280;4358;42.100;25.222;2023-12-07T03:34:10;99773.19;;;4.86;100.00
8641;BME280;4358;42.100;25.222;2023-12-07T03:36:42;99780.59;;;4.97;100.00
8641;BME280;4358;42.100;25.222;2023-12-07T03:39:09;99785.34;;;5.07;100.00
8641;BME280;4358;42.100;25.222;2023-12-07T03:41:36;99768.41;;;5.13;100.00
8641;BME280;4358;42.100;25.222;2023-12-07T03:44:03;99773.47;;;5.18;100.00
8641;BME280;4358;42.100;25.222;2023-12-07T03:46:30;99758.72;;;5.13;100.00
8641;BME280;4358;42.100;25.222;2023-12-07T03:48:57;99777.44;;;5.26;100.00
8641;BME280;4358;42.100;25.222;2023-12-07T03:51:26;99779.16;;;5.27;100.00
8641;BME280;4358;42.100;25.222;2023-12-07T03:53:54;99777.28;;;5.29;100.00
8641;BME280;4358;42.100;25.222;2023-12-07T03:56:24;99764.06;;;5.31;100.00
8641;BME280;4358;42.100;25.222;2023-12-07T03:58:51;99772.88;;;5.30;100.00
8641;BME280;4358;42.100;25.222;2023-12-07T04:01:21;99765.06;;;5.28;100.00
8641;BME280;4358;42.100;25.222;2023-12-07T04:03:49;99769.47;;;5.28;100.00
8641;BME280;4358;42.100;25.222;2023-12-07T04:06:16;99760.50;;;5.32;100.00
8641;BME280;4358;42.100;25.222;2023-12-07T04:08:43;99762.97;;;5.35;100.00
8641;BME280;4358;42.100;25.222;2023-12-07T04:11:13;99768.19;;;5.36;100.00
8641;BME280;4358;42.100;25.222;2023-12-07T04:13:41;99764.00;;;5.32;100.00
8641;BME280;4358;42.100;25.222;2023-12-07T04:16:08;99766.69;;;5.31;100.00
8641;BME280;4358;42.100;25.222;2023-12-07T04:18:35;99775.50;;;5.30;100.00
8641;BME280;4358;42.100;25.222;2023-12-07T04:21:03;99760.34;;;5.35;100.00
8641;BME280;4358;42.100;25.222;2023-12-07T04:23:31;99755.53;;;5.26;100.00
8641;BME280;4358;42.100;25.222;2023-12-07T04:25:58;99774.59;;;5.31;100.00
8641;BME280;4358;42.100;25.222;2023-12-07T04:28:27;99775.44;;;5.31;100.00
8641;BME280;4358;42.100;25.222;2023-12-07T04:30:53;99778.28;;;5.27;100.00
8641;BME280;4358;42.100;25.222;2023-12-07T04:33:20;99780.75;;;5.30;100.00
8641;BME280;4358;42.100;25.222;2023-12-07T04:35:47;99791.38;;;5.28;100.00
8641;BME280;4358;42.100;25.222;2023-12-07T04:38:14;99792.22;;;5.29;100.00
8641;BME280;4358;42.100;25.222;2023-12-07T04:40:41;99794.50;;;5.36;100.00
8641;BME280;4358;42.100;25.222;2023-12-07T04:43:08;99803.25;;;5.37;100.00
8641;BME280;4358;42.100;25.222;2023-12-07T04:45:37;99804.16;;;5.36;100.00
8641;BME280;4358;42.100;25.222;2023-12-07T04:48:04;99805.03;;;5.36;100.00
8641;BME280;4358;42.100;25.222;2023-12-07T04:50:31;99806.16;;;5.31;100.00
8641;BME280;4358;42.100;25.222;2023-12-07T04:52:58;99799.47;;;5.24;100.00
8641;BME280;4358;42.100;25.222;2023-12-07T04:55:25;99801.34;;;5.22;100.00
8641;BME280;4358;42.100;25.222;2023-12-07T04:57:53;99792.81;;;5.17;100.00
8641;BME280;4358;42.100;25.222;2023-12-07T05:00:20;99803.59;;;5.10;100.00
8641;BME280;4358;42.100;25.222;2023-12-07T05:02:49;99789.53;;;5.11;100.00
8641;BME280;4358;42.100;25.222;2023-12-07T05:05:16;99804.09;;;5.19;100.00
8641;BME280;4358;42.100;25.222;2023-12-07T05:07:44;99803.91;;;5.23;100.00
8641;BME280;4358;42.100;25.222;2023-12-07T05:10:11;99801.34;;;5.22;100.00
8641;BME280;4358;42.100;25.222;2023-12-07T05:12:38;99805.16;;;5.15;100.00
8641;BME280;4358;42.100;25.222;2023-12-07T05:15:06;99797.91;;;5.20;100.00
8641;BME280;4358;42.100;25.222;2023-12-07T05:17:34;99804.88;;;5.21;100.00
8641;BME280;4358;42.100;25.222;2023-12-07T05:20:02;99806.66;;;5.20;100.00
8641;BME280;4358;42.100;25.222;2023-12-07T05:22:31;99813.00;;;5.16;100.00
8641;BME280;4358;42.100;25.222;2023-12-07T05:24:58;99806.88;;;5.16;100.00
8641;BME280;4358;42.100;25.222;2023-12-07T05:27:25;99810.91;;;5.04;100.00
8641;BME280;4358;42.100;25.222;2023-12-07T05:29:52;99799.59;;;4.64;100.00
8641;BME280;4358;42.100;25.222;2023-12-07T05:32:19;99799.72;;;4.41;100.00
8641;BME280;4358;42.100;25.222;2023-12-07T05:34:46;99799.72;;;4.41;100.00
8641;BME280;4358;42.100;25.222;2023-12-07T05:37:14;99803.81;;;4.48;100.00
8641;BME280;4358;42.100;25.222;2023-12-07T05:39:41;99811.44;;;4.54;100.00
8641;BME280;4358;42.100;25.222;2023-12-07T05:42:08;99805.97;;;4.59;100.00
8641;BME280;4358;42.100;25.222;2023-12-07T05:44:35;99813.66;;;4.63;100.00
8641;BME280;4358;42.100;25.222;2023-12-07T05:47:02;99815.91;;;4.71;100.00
8641;BME280;4358;42.100;25.222;2023-12-07T05:49:29;99809.47;;;4.78;100.00
8641;BME280;4358;42.100;25.222;2023-12-07T05:51:56;99817.25;;;4.81;100.00
8641;BME280;4358;42.100;25.222;2023-12-07T05:54:25;99824.59;;;4.73;100.00
8641;BME280;4358;42.100;25.222;2023-12-07T05:56:52;99828.44;;;4.46;100.00
8641;BME280;4358;42.100;25.222;2023-12-07T05:59:19;99827.56;;;4.25;100.00
8641;BME280;4358;42.100;25.222;2023-12-07T06:01:46;99831.97;;;4.24;100.00
8641;BME280;4358;42.100;25.222;2023-12-07T06:04:13;99822.78;;;4.35;100.00
8641;BME280;4358;42.100;25.222;2023-12-07T06:06:41;99826.75;;;4.45;100.00
8641;BME280;4358;42.100;25.222;2023-12-07T06:09:08;99835.72;;;4.59;100.00
8641;BME280;4358;42.100;25.222;2023-12-07T06:11:37;99839.50;;;4.73;100.00
8641;BME280;4358;42.100;25.222;2023-12-07T06:14:04;99848.97;;;4.77;100.00
8641;BME280;4358;42.100;25.222;2023-12-07T06:16:31;99839.97;;;4.82;100.00
8641;BME280;4358;42.100;25.222;2023-12-07T06:18:58;99855.63;;;4.85;100.00
8641;BME280;4358;42.100;25.222;2023-12-07T06:21:25;99844.31;;;4.63;100.00
8641;BME280;4358;42.100;25.222;2023-12-07T06:23:55;99850.00;;;4.54;100.00
8641;BME280;4358;42.100;25.222;2023-12-07T06:26:22;99844.47;;;4.60;100.00
8641;BME280;4358;42.100;25.222;2023-12-07T06:28:51;99852.44;;;4.77;100.00
8641;BME280;4358;42.100;25.222;2023-12-07T06:31:18;99848.78;;;4.81;100.00
8641;BME280;4358;42.100;25.222;2023-12-07T06:33:46;99859.16;;;4.84;100.00
8641;BME280;4358;42.100;25.222;2023-12-07T06:36:18;99849.50;;;4.85;100.00
8641;BME280;4358;42.100;25.222;2023-12-07T06:38:46;99858.47;;;4.99;100.00
8641;BME280;4358;42.100;25.222;2023-12-07T06:41:14;99858.84;;;5.10;100.00
8641;BME280;4358;42.100;25.222;2023-12-07T06:43:42;99863.91;;;5.15;100.00
8641;BME280;4358;42.100;25.222;2023-12-07T06:46:11;99868.03;;;5.21;100.00
8641;BME280;4358;42.100;25.222;2023-12-07T06:48:39;99864.22;;;5.28;100.00
8641;BME280;4358;42.100;25.222;2023-12-07T06:51:06;99873.44;;;5.36;100.00
8641;BME280;4358;42.100;25.222;2023-12-07T06:53:33;99881.69;;;5.47;100.00
8641;BME280;4358;42.100;25.222;2023-12-07T06:56:00;99877.88;;;5.54;100.00
8641;BME280;4358;42.100;25.222;2023-12-07T06:58:27;99882.69;;;5.64;100.00
8641;BME280;4358;42.100;25.222;2023-12-07T07:00:54;99888.81;;;5.64;100.00
8641;BME280;4358;42.100;25.222;2023-12-07T07:03:22;99889.94;;;5.77;100.00
8641;BME280;4358;42.100;25.222;2023-12-07T07:05:50;99886.31;;;5.80;100.00
8641;BME280;4358;42.100;25.222;2023-12-07T07:08:17;99889.47;;;5.86;100.00
8641;BME280;4358;42.100;25.222;2023-12-07T07:10:44;99882.25;;;5.91;100.00
8641;BME280;4358;42.100;25.222;2023-12-07T07:13:12;99875.06;;;5.95;100.00
8641;BME280;4358;42.100;25.222;2023-12-07T07:15:41;99885.53;;;5.97;100.00
8641;BME280;4358;42.100;25.222;2023-12-07T07:18:09;99884.06;;;6.08;100.00
8641;BME280;4358;42.100;25.222;2023-12-07T07:20:37;99892.81;;;6.09;100.00
8641;BME280;4358;42.100;25.222;2023-12-07T07:23:05;99893.19;;;5.82;100.00
8641;BME280;4358;42.100;25.222;2023-12-07T07:25:33;99894.66;;;5.89;100.00
8641;BME280;4358;42.100;25.222;2023-12-07T07:28:01;99887.66;;;5.88;100.00
8641;BME280;4358;42.100;25.222;2023-12-07T07:30:29;99887.28;;;5.77;100.00
8641;BME280;4358;42.100;25.222;2023-12-07T07:32:55;99884.81;;;5.74;100.00
8641;BME280;4358;42.100;25.222;2023-12-07T07:35:22;99890.66;;;5.81;100.00
8641;BME280;4358;42.100;25.222;2023-12-07T07:37:51;99889.47;;;5.86;100.00
8641;BME280;4358;42.100;25.222;2023-12-07T07:40:19;99888.38;;;5.92;100.00
8641;BME280;4358;42.100;25.222;2023-12-07T07:42:46;99897.75;;;5.97;100.00
8641;BME280;4358;42.100;25.222;2023-12-07T07:45:13;99891.13;;;6.08;100.00
8641;BME280;4358;42.100;25.222;2023-12-07T07:47:40;99889.97;;;6.13;100.00
8641;BME280;4358;42.100;25.222;2023-12-07T07:50:07;99885.19;;;6.21;100.00
8641;BME280;4358;42.100;25.222;2023-12-07T07:52:36;99887.28;;;6.32;100.00
8641;BME280;4358;42.100;25.222;2023-12-07T07:55:05;99896.28;;;6.45;100.00
8641;BME280;4358;42.100;25.222;2023-12-07T07:57:32;99902.03;;;6.53;100.00
8641;BME280;4358;42.100;25.222;2023-12-07T07:59:59;99901.72;;;6.59;100.00
8641;BME280;4358;42.100;25.222;2023-12-07T08:02:26;99897.38;;;6.58;100.00
8641;BME280;4358;42.100;25.222;2023-12-07T08:04:53;99907.91;;;6.75;100.00
8641;BME280;4358;42.100;25.222;2023-12-07T08:07:20;99905.56;;;6.87;100.00
8641;BME280;4358;42.100;25.222;2023-12-07T08:09:47;99908.69;;;6.95;100.00
8641;BME280;4358;42.100;25.222;2023-12-07T08:12:15;99913.28;;;7.07;100.00
8641;BME280;4358;42.100;25.222;2023-12-07T08:14:43;99916.53;;;7.12;100.00
8641;BME280;4358;42.100;25.222;2023-12-07T08:17:11;99917.00;;;7.20;100.00
8641;BME280;4358;42.100;25.222;2023-12-07T08:19:38;99918.97;;;7.16;100.00
8641;BME280;4358;42.100;25.222;2023-12-07T08:22:05;99918.13;;;7.16;100.00
8641;BME280;4358;42.100;25.222;2023-12-07T08:24:32;99916.22;;;7.18;100.00
8641;BME280;4358;42.100;25.222;2023-12-07T08:26:59;99912.34;;;7.25;100.00
8641;BME280;4358;42.100;25.222;2023-12-07T08:29:27;99916.94;;;7.21;100.00
8641;BME280;4358;42.100;25.222;2023-12-07T08:31:54;99922.84;;;7.27;100.00
8641;BME280;4358;42.100;25.222;2023-12-07T08:34:21;99921.78;;;7.29;100.00
8641;BME280;4358;42.100;25.222;2023-12-07T08:36:49;99920.38;;;7.39;100.00
8641;BME280;4358;42.100;25.222;2023-12-07T08:39:15;99914.63;;;7.48;100.00
8641;BME280;4358;42.100;25.222;2023-12-07T08:41:42;99915.28;;;7.52;100.00
8641;BME280;4358;42.100;25.222;2023-12-07T08:44:09;99922.97;;;7.56;100.00
8641;BME280;4358;42.100;25.222;2023-12-07T08:46:38;99914.44;;;7.51;100.00
8641;BME280;4358;42.100;25.222;2023-12-07T08:49:05;99925.81;;;7.69;100.00
8641;BME280;4358;42.100;25.222;2023-12-07T08:51:32;99935.78;;;7.80;100.00
8641;BME280;4358;42.100;25.222;2023-12-07T08:54:00;99933.38;;;7.91;100.00
8641;BME280;4358;42.100;25.222;2023-12-07T08:56:27;99926.75;;;7.99;100.00
8641;BME280;4358;42.100;25.222;2023-12-07T08:58:54;99926.72;;;8.15;100.00
8641;BME280;4358;42.100;25.222;2023-12-07T09:01:20;99929.69;;;8.25;100.00
8641;BME280;4358;42.100;25.222;2023-12-07T09:03:49;99920.72;;;8.27;100.00
8641;BME280;4358;42.100;25.222;2023-12-07T09:06:16;99921.78;;;8.40;100.00
8641;BME280;4358;42.100;25.222;2023-12-07T09:08:43;99921.91;;;8.53;100.00
8641;BME280;4358;42.100;25.222;2023-12-07T09:11:11;99931.63;;;8.68;100.00
8641;BME280;4358;42.100;25.222;2023-12-07T09:13:38;99923.78;;;8.81;100.00
8641;BME280;4358;42.100;25.222;2023-12-07T09:16:05;99918.22;;;8.85;100.00
8641;BME280;4358;42.100;25.222;2023-12-07T09:18:33;99922.97;;;8.95;100.00
8641;BME280;4358;42.100;25.222;2023-12-07T09:21:02;99926.66;;;9.06;100.00
8641;BME280;4358;42.100;25.222;2023-12-07T09:23:29;99920.50;;;9.06;100.00
8641;BME280;4358;42.100;25.222;2023-12-07T09:25:56;99922.91;;;9.10;100.00
8641;BME280;4358;42.100;25.222;2023-12-07T09:28:23;99918.34;;;9.26;100.00
8641;BME280;4358;42.100;25.222;2023-12-07T09:30:50;99913.16;;;9.39;100.00
8641;BME280;4358;42.100;25.222;2023-12-07T09:33:17;99917.81;;;9.50;100.00
8641;BME280;4358;42.100;25.222;2023-12-07T09:35:44;99913.66;;;9.46;100.00
8641;BME280;4358;42.100;25.222;2023-12-07T09:38:13;99919.22;;;9.55;100.00
8641;BME280;4358;42.100;25.222;2023-12-07T09:40:40;99915.72;;;9.55;100.00
8641;BME280;4358;42.100;25.222;2023-12-07T09:43:07;99912.47;;;9.64;100.00
8641;BME280;4358;42.100;25.222;2023-12-07T09:45:34;99905.69;;;9.60;100.00
8641;BME280;4358;42.100;25.222;2023-12-07T09:48:01;99909.34;;;9.71;100.00
8641;BME280;4358;42.100;25.222;2023-12-07T09:50:30;99910.22;;;9.72;100.00
8641;BME280;4358;42.100;25.222;2023-12-07T09:52:57;99908.13;;;9.77;100.00
8641;BME280;4358;42.100;25.222;2023-12-07T09:55:26;99909.63;;;9.81;100.00
8641;BME280;4358;42.100;25.222;2023-12-07T09:57:53;99919.56;;;9.77;100.00
8641;BME280;4358;42.100;25.222;2023-12-07T10:00:23;99913.41;;;9.77;100.00
8641;BME280;4358;42.100;25.222;2023-12-07T10:02:51;99909.41;;;9.84;100.00
8641;BME280;4358;42.100;25.222;2023-12-07T10:05:18;99905.94;;;9.69;100.00
8641;BME280;4358;42.100;25.222;2023-12-07T10:07:46;99895.75;;;9.49;100.00
8641;BME280;4358;42.100;25.222;2023-12-07T10:10:15;99884.69;;;9.43;100.00
8641;BME280;4358;42.100;25.222;2023-12-07T10:12:48;99891.78;;;9.56;100.00
8641;BME280;4358;42.100;25.222;2023-12-07T10:15:18;99893.00;;;9.65;100.00
8641;BME280;4358;42.100;25.222;2023-12-07T10:17:47;99885.91;;;9.51;100.00
8641;BME280;4358;42.100;25.222;2023-12-07T10:20:18;99885.25;;;9.48;100.00
8641;BME280;4358;42.100;25.222;2023-12-07T10:22:49;99886.94;;;9.49;100.00
8641;BME280;4358;42.100;25.222;2023-12-07T10:25:28;99885.53;;;9.57;100.00
8641;BME280;4358;42.100;25.222;2023-12-07T10:27:56;99880.94;;;9.73;100.00
8641;BME280;4358;42.100;25.222;2023-12-07T10:30:23;99889.19;;;9.83;100.00
8641;BME280;4358;42.100;25.222;2023-12-07T10:32:51;99880.63;;;9.92;100.00
8641;BME280;4358;42.100;25.222;2023-12-07T10:35:19;99877.47;;;10.00;100.00
8641;BME280;4358;42.100;25.222;2023-12-07T10:37:46;99867.72;;;10.00;100.00
8641;BME280;4358;42.100;25.222;2023-12-07T10:40:13;99872.63;;;10.06;100.00
8641;BME280;4358;42.100;25.222;2023-12-07T10:42:41;99860.53;;;10.02;100.00
8641;BME280;4358;42.100;25.222;2023-12-07T10:45:10;99871.28;;;10.13;100.00
8641;BME280;4358;42.100;25.222;2023-12-07T10:47:40;99861.97;;;10.20;100.00
8641;BME280;4358;42.100;25.222;2023-12-07T10:50:10;99876.56;;;10.28;100.00
8641;BME280;4358;42.100;25.222;2023-12-07T10:52:44;99881.25;;;10.37;100.00
8641;BME280;4358;42.100;25.222;2023-12-07T10:55:16;99875.13;;;10.49;100.00
8641;BME280;4358;42.100;25.222;2023-12-07T10:57:44;99878.53;;;10.63;100.00
8641;BME280;4358;42.100;25.222;2023-12-07T11:00:14;99878.78;;;10.73;100.00
8641;BME280;4358;42.100;25.222;2023-12-07T11:02:42;99877.50;;;10.79;100.00
8641;BME280;4358;42.100;25.222;2023-12-07T11:05:11;99875.28;;;10.85;100.00
8641;BME280;4358;42.100;25.222;2023-12-07T11:07:45;99872.66;;;10.98;100.00
8641;BME280;4358;42.100;25.222;2023-12-07T11:10:20;99867.31;;;11.11;100.00
8641;BME280;4358;42.100;25.222;2023-12-07T11:12:54;99869.56;;;11.17;100.00
8641;BME280;4358;42.100;25.222;2023-12-07T11:15:24;99865.28;;;11.27;100.00
8641;BME280;4358;42.100;25.222;2023-12-07T11:17:54;99857.97;;;11.30;100.00
8641;BME280;4358;42.100;25.222;2023-12-07T11:20:22;99877.50;;;11.42;100.00
8641;BME280;4358;42.100;25.222;2023-12-07T11:22:50;99868.13;;;11.49;100.00
8641;BME280;4358;42.100;25.222;2023-12-07T11:25:19;99867.91;;;11.52;100.00
8641;BME280;4358;42.100;25.222;2023-12-07T11:27:47;99865.38;;;11.38;100.00
8641;BME280;4358;42.100;25.222;2023-12-07T11:30:14;99864.00;;;11.32;100.00
8641;BME280;4358;42.100;25.222;2023-12-07T11:32:44;99854.34;;;11.31;100.00
8641;BME280;4358;42.100;25.222;2023-12-07T11:35:12;99855.00;;;11.22;100.00
8641;BME280;4358;42.100;25.222;2023-12-07T11:38:05;99849.91;;;11.07;100.00
8641;BME280;4358;42.100;25.222;2023-12-07T11:40:36;99839.94;;;10.97;100.00
8641;BME280;4358;42.100;25.222;2023-12-07T11:43:04;99841.63;;;10.98;100.00
8641;BME280;4358;42.100;25.222;2023-12-07T11:45:41;99834.41;;;11.00;100.00
8641;BME280;4358;42.100;25.222;2023-12-07T11:48:11;99835.97;;;11.16;100.00
8641;BME280;4358;42.100;25.222;2023-12-07T11:50:58;99836.06;;;11.27;100.00
8641;BME280;4358;42.100;25.222;2023-12-07T11:53:26;99825.97;;;11.32;100.00
8641;BME280;4358;42.100;25.222;2023-12-07T11:55:55;99839.56;;;11.40;100.00
8641;BME280;4358;42.100;25.222;2023-12-07T11:58:24;99834.13;;;11.54;100.00
8641;BME280;4358;42.100;25.222;2023-12-07T12:00:52;99833.00;;;11.69;100.00
8641;BME280;4358;42.100;25.222;2023-12-07T12:03:20;99829.19;;;11.73;100.00
8641;BME280;4358;42.100;25.222;2023-12-07T12:05:47;99835.81;;;11.92;100.00
8641;BME280;4358;42.100;25.222;2023-12-07T12:08:15;99838.75;;;12.00;100.00
8641;BME280;4358;42.100;25.222;2023-12-07T12:10:43;99840.56;;;11.99;100.00
8641;BME280;4358;42.100;25.222;2023-12-07T12:13:10;99831.53;;;12.02;100.00
8641;BME280;4358;42.100;25.222;2023-12-07T12:15:38;99827.91;;;12.03;100.00
8641;BME280;4358;42.100;25.222;2023-12-07T12:18:05;99834.19;;;12.02;100.00
8641;BME280;4358;42.100;25.222;2023-12-07T12:20:34;99826.47;;;12.10;100.00
8641;BME280;4358;42.100;25.222;2023-12-07T12:23:01;99823.59;;;12.13;100.00
8641;BME280;4358;42.100;25.222;2023-12-07T12:25:30;99822.44;;;11.93;100.00
8641;BME280;4358;42.100;25.222;2023-12-07T12:27:58;99820.56;;;11.82;100.00
8641;BME280;4358;42.100;25.222;2023-12-07T12:30:28;99819.72;;;11.69;100.00
8641;BME280;4358;42.100;25.222;2023-12-07T12:32:56;99817.94;;;11.57;100.00
8641;BME280;4358;42.100;25.222;2023-12-07T12:35:25;99826.13;;;11.54;100.00
8641;BME280;4358;42.100;25.222;2023-12-07T12:37:54;99815.44;;;11.43;100.00
8641;BME280;4358;42.100;25.222;2023-12-07T12:40:23;99817.34;;;11.41;100.00
8641;BME280;4358;42.100;25.222;2023-12-07T12:42:51;99812.69;;;11.32;100.00
8641;BME280;4358;42.100;25.222;2023-12-07T12:45:19;99809.94;;;11.21;100.00
8641;BME280;4358;42.100;25.222;2023-12-07T12:47:47;99811.53;;;11.23;100.00
8641;BME280;4358;42.100;25.222;2023-12-07T12:50:33;99807.09;;;11.24;100.00
8641;BME280;4358;42.100;25.222;2023-12-07T12:53:02;99802.81;;;11.21;100.00
8641;BME280;4358;42.100;25.222;2023-12-07T12:55:31;99798.16;;;11.25;100.00
8641;BME280;4358;42.100;25.222;2023-12-07T12:57:58;99800.59;;;11.28;100.00
8641;BME280;4358;42.100;25.222;2023-12-07T13:00:25;99795.38;;;11.26;100.00
8641;BME280;4358;42.100;25.222;2023-12-07T13:02:53;99804.63;;;11.33;100.00
8641;BME280;4358;42.100;25.222;2023-12-07T13:05:20;99807.16;;;11.35;100.00
8641;BME280;4358;42.100;25.222;2023-12-07T13:07:47;99805.97;;;11.39;100.00
8641;BME280;4358;42.100;25.222;2023-12-07T13:10:16;99811.28;;;11.39;100.00
8641;BME280;4358;42.100;25.222;2023-12-07T13:12:43;99808.84;;;11.36;100.00
8641;BME280;4358;42.100;25.222;2023-12-07T13:15:11;99809.75;;;11.24;100.00